Time;durP1;ratioP1;P1;durP2;ratioP2;P2;SDS_P1;SDS_P2;PMS_P1;PMS_P2;Temp;Humidity;BMP_temperature;BMP_pressure;BME280_temperature;BME280_humidity;BME280_pressure;Samples;Min_cycle;Max_cycle;Signal;HPM_P1;HPM_P2
2023/09/19 00:01:37;;;;;;;7.95;1.40;;;;;;;14.35;100.00;100369.66;10396392;28;20064;-72
2023/09/19 00:06:38;;;;;;;5.07;1.30;;;;;;;14.22;100.00;100366.44;10393611;28;20109;-69
2023/09/19 00:11:39;;;;;;;5.38;1.80;;;;;;;14.12;100.00;100366.53;10396207;28;21072;-73
2023/09/19 00:16:41;;;;;;;8.50;1.63;;;;;;;14.01;100.00;100387.91;10455073;28;20060;-74
2023/09/19 00:21:41;;;;;;;8.43;1.52;;;;;;;13.85;100.00;100373.41;10432906;28;20498;-73
2023/09/19 00:26:43;;;;;;;9.35;1.63;;;;;;;13.80;100.00;100392.78;10393413;28;20045;-73
2023/09/19 00:31:44;;;;;;;5.35;1.13;;;;;;;13.69;100.00;100399.53;10391337;28;20087;-73
2023/09/19 00:36:45;;;;;;;6.90;1.95;;;;;;;13.59;100.00;100399.59;10397541;28;20041;-73
2023/09/19 00:41:45;;;;;;;8.00;1.23;;;;;;;13.48;100.00;100401.59;10390897;28;20041;-72
2023/09/19 00:46:49;;;;;;;6.70;1.38;;;;;;;13.43;100.00;100410.72;10370933;28;20037;-73
2023/09/19 00:51:49;;;;;;;9.10;1.65;;;;;;;13.38;100.00;100408.00;10385291;28;20038;-73
2023/09/19 00:56:50;;;;;;;9.63;1.92;;;;;;;13.27;100.00;100417.41;10366749;28;20769;-74
2023/09/19 01:01:54;;;;;;;9.65;2.10;;;;;;;13.13;100.00;100409.72;10381689;28;20041;-73
2023/09/19 01:06:54;;;;;;;4.40;1.90;;;;;;;13.10;100.00;100424.13;10414792;28;20111;-73
2023/09/19 01:11:58;;;;;;;9.40;1.55;;;;;;;13.02;100.00;100415.56;10401939;28;20489;-73
2023/09/19 01:17:13;;;;;;;6.45;1.40;;;;;;;13.02;100.00;100433.00;10374296;28;20498;-74
2023/09/19 01:22:33;;;;;;;7.30;1.55;;;;;;;12.98;100.00;100442.97;10361145;28;20068;-74
2023/09/19 01:27:47;;;;;;;8.25;1.40;;;;;;;12.90;100.00;100449.88;10388611;28;20058;-73
2023/09/19 01:32:52;;;;;;;5.72;0.85;;;;;;;12.83;100.00;100460.38;10377656;28;20106;-72
2023/09/19 01:37:53;;;;;;;11.27;1.38;;;;;;;12.79;100.00;100452.94;10361841;28;20042;-73
2023/09/19 01:43:14;;;;;;;7.72;1.75;;;;;;;12.76;100.00;100459.03;10379132;28;20061;-73
2023/09/19 01:48:42;;;;;;;9.95;2.40;;;;;;;12.68;100.00;100472.28;10378527;28;20481;-72
2023/09/19 01:54:07;;;;;;;6.45;2.15;;;;;;;12.62;100.00;100461.53;10377819;28;20074;-73
2023/09/19 01:59:11;;;;;;;5.95;1.35;;;;;;;12.59;100.00;100457.41;10387877;28;20034;-73
2023/09/19 02:04:12;;;;;;;9.05;1.40;;;;;;;12.51;100.00;100471.78;10378733;28;20049;-74
2023/09/19 02:09:12;;;;;;;7.07;2.10;;;;;;;12.48;100.00;100466.78;10368314;28;20045;-73
2023/09/19 02:14:13;;;;;;;3.35;1.20;;;;;;;12.44;100.00;100473.97;10370086;28;20093;-71
2023/09/19 02:19:14;;;;;;;8.65;2.75;;;;;;;12.32;100.00;100469.56;10376310;28;20133;-73
2023/09/19 02:24:15;;;;;;;9.65;1.65;;;;;;;12.34;100.00;100472.06;10378282;28;20038;-73
2023/09/19 02:29:15;;;;;;;9.85;1.95;;;;;;;12.31;100.00;100476.16;10373187;28;20134;-73
2023/09/19 02:34:16;;;;;;;8.40;1.73;;;;;;;12.28;100.00;100473.97;10377911;28;20117;-73
2023/09/19 02:39:17;;;;;;;7.38;1.60;;;;;;;12.13;100.00;100459.34;10376250;28;20051;-72
2023/09/19 02:44:19;;;;;;;7.43;1.58;;;;;;;12.23;100.00;100485.00;10375589;28;20042;-71
2023/09/19 02:49:20;;;;;;;6.13;1.40;;;;;;;12.23;100.00;100495.22;10377432;28;20068;-73
2023/09/19 02:54:21;;;;;;;8.55;2.05;;;;;;;12.19;100.00;100486.66;10377253;28;20121;-71
2023/09/19 02:59:22;;;;;;;6.03;1.40;;;;;;;12.23;100.00;100485.00;10362349;28;20130;-72
2023/09/19 03:04:22;;;;;;;7.20;1.95;;;;;;;12.28;100.00;100490.53;10430732;28;20049;-72
2023/09/19 03:09:23;;;;;;;7.90;2.25;;;;;;;12.31;100.00;100483.63;10397881;28;20045;-72
2023/09/19 03:14:23;;;;;;;8.75;2.78;;;;;;;11.94;100.00;100435.03;10407403;28;20041;-72
2023/09/19 03:19:26;;;;;;;7.50;2.40;;;;;;;12.35;100.00;100486.69;10392141;28;20101;-72
2023/09/19 03:24:27;;;;;;;9.23;2.35;;;;;;;12.36;100.00;100494.69;10397957;28;20037;-73
2023/09/19 03:29:27;;;;;;;9.85;2.22;;;;;;;12.32;100.00;100505.44;10391210;28;20046;-72
2023/09/19 03:34:28;;;;;;;7.68;2.33;;;;;;;12.32;100.00;100486.13;10398518;28;20045;-71
2023/09/19 03:39:28;;;;;;;6.22;1.77;;;;;;;12.24;100.00;100483.91;10390328;28;20069;-70
2023/09/19 03:44:28;;;;;;;5.63;1.77;;;;;;;12.31;100.00;100506.53;10398548;28;20443;-71
2023/09/19 03:49:30;;;;;;;10.48;2.28;;;;;;;12.32;100.00;100508.22;10394226;28;20045;-71
2023/09/19 03:54:30;;;;;;;10.25;2.75;;;;;;;12.35;100.00;100500.47;10389458;28;20046;-71
2023/09/19 03:59:31;;;;;;;12.60;1.80;;;;;;;12.28;100.00;100493.31;10385613;28;20045;-71
2023/09/19 04:04:31;;;;;;;9.15;2.20;;;;;;;12.25;100.00;100491.06;10397997;28;20072;-71
2023/09/19 04:09:32;;;;;;;7.03;2.20;;;;;;;12.28;100.00;100507.09;10392563;28;20044;-71
2023/09/19 04:14:32;;;;;;;3.83;1.15;;;;;;;12.26;100.00;100512.06;10396852;28;20413;-67
2023/09/19 04:19:33;;;;;;;6.85;2.00;;;;;;;12.27;100.00;100516.47;10389626;28;20088;-70
2023/09/19 04:24:34;;;;;;;9.00;1.38;;;;;;;12.36;100.00;100514.00;10391840;28;20034;-70
2023/09/19 04:29:34;;;;;;;6.82;1.40;;;;;;;12.45;100.00;100533.63;10396940;28;20042;-71
2023/09/19 04:34:35;;;;;;;8.00;1.80;;;;;;;12.43;100.00;100524.78;10388579;28;20068;-71
2023/09/19 04:39:36;;;;;;;7.30;1.83;;;;;;;12.49;100.00;100529.19;10396709;28;20037;-71
2023/09/19 04:44:37;;;;;;;5.13;1.45;;;;;;;12.52;100.00;100537.75;10398819;28;20069;-71
2023/09/19 04:49:39;;;;;;;9.23;1.67;;;;;;;12.59;100.00;100529.19;10405537;28;20099;-71
2023/09/19 04:54:41;;;;;;;4.38;1.40;;;;;;;12.69;100.00;100539.41;10394462;28;20075;-71
2023/09/19 04:59:41;;;;;;;14.07;2.40;;;;;;;12.75;100.00;100559.56;10398018;28;20046;-73
2023/09/19 05:04:42;;;;;;;9.10;2.03;;;;;;;12.76;100.00;100551.00;10399183;28;20041;-71
2023/09/19 05:09:42;;;;;;;7.45;1.65;;;;;;;12.79;100.00;100546.88;10402076;28;20042;-71
2023/09/19 05:14:43;;;;;;;6.53;1.52;;;;;;;12.84;100.00;100550.47;10401348;28;20030;-72
2023/09/19 05:19:43;;;;;;;10.93;2.35;;;;;;;12.87;100.00;100549.06;10398872;28;20042;-71
2023/09/19 05:24:47;;;;;;;8.40;1.80;;;;;;;12.76;100.00;100539.97;10399307;28;20058;-71
2023/09/19 05:29:50;;;;;;;7.35;1.95;;;;;;;12.83;100.00;100550.72;10396282;28;20088;-72
2023/09/19 05:34:56;;;;;;;9.43;1.83;;;;;;;12.71;100.00;100542.72;10398797;28;20057;-72
2023/09/19 05:39:57;;;;;;;9.82;2.55;;;;;;;12.77;100.00;100560.13;10454740;28;20211;-71
2023/09/19 05:44:58;;;;;;;6.78;1.80;;;;;;;12.79;100.00;100557.91;10452787;28;20099;-72
2023/09/19 05:49:59;;;;;;;8.52;1.98;;;;;;;12.84;100.00;100564.28;10409458;28;20180;-72
2023/09/19 05:55:00;;;;;;;7.47;1.92;;;;;;;12.90;100.00;100562.34;10401481;28;20041;-72
2023/09/19 06:00:00;;;;;;;8.57;2.13;;;;;;;12.88;100.00;100557.09;10376788;28;20050;-72
2023/09/19 06:05:01;;;;;;;5.80;2.22;;;;;;;12.93;100.00;100554.31;10376052;28;20041;-71
2023/09/19 06:10:02;;;;;;;6.97;1.60;;;;;;;12.99;100.00;100560.66;10394383;28;20042;-70
2023/09/19 06:15:08;;;;;;;8.10;2.33;;;;;;;13.02;100.00;100562.03;10401199;28;20071;-71
2023/09/19 06:20:15;;;;;;;16.73;3.47;;;;;;;13.09;100.00;100571.69;10409768;28;20064;-72
2023/09/19 06:25:17;;;;;;;14.88;2.05;;;;;;;13.07;100.00;100575.84;10394891;28;20101;-72
2023/09/19 06:30:18;;;;;;;6.88;1.73;;;;;;;13.19;100.00;100597.66;10393744;28;20038;-72
2023/09/19 06:35:18;;;;;;;11.98;2.22;;;;;;;13.27;100.00;100599.84;10398139;28;20091;-72
2023/09/19 06:40:19;;;;;;;10.65;1.98;;;;;;;13.30;100.00;100604.88;10385719;28;20045;-72
2023/09/19 06:45:19;;;;;;;10.70;1.90;;;;;;;13.38;100.00;100601.53;10398375;28;20077;-72
2023/09/19 06:50:22;;;;;;;11.75;1.65;;;;;;;13.40;100.00;100615.09;10397108;28;20041;-72
2023/09/19 06:55:27;;;;;;;8.38;1.60;;;;;;;13.46;100.00;100609.28;10379249;28;20050;-73
2023/09/19 07:00:31;;;;;;;10.98;2.08;;;;;;;13.53;100.00;100598.72;10386107;28;20045;-73
2023/09/19 07:05:31;;;;;;;9.50;1.92;;;;;;;13.49;100.00;100589.34;10393796;28;20379;-72
2023/09/19 07:10:33;;;;;;;10.57;2.00;;;;;;;13.82;100.00;100600.84;10390372;28;20045;-72
2023/09/19 07:15:36;;;;;;;10.70;1.70;;;;;;;14.08;100.00;100592.44;10382750;28;20061;-72
2023/09/19 07:20:38;;;;;;;7.93;1.80;;;;;;;14.19;100.00;100605.09;10422655;28;20095;-72
2023/09/19 07:25:38;;;;;;;10.07;2.40;;;;;;;14.39;100.00;100597.81;10419511;28;20343;-71
2023/09/19 07:30:39;;;;;;;8.07;1.92;;;;;;;14.45;100.00;100591.09;10425203;28;20048;-72
2023/09/19 07:35:42;;;;;;;7.13;1.23;;;;;;;14.55;100.00;100602.09;10420825;28;20104;-73
2023/09/19 07:40:43;;;;;;;8.30;1.88;;;;;;;14.57;100.00;100605.44;10419576;28;20049;-72
2023/09/19 07:45:44;;;;;;;6.72;2.40;;;;;;;14.53;100.00;100599.66;10414250;28;20053;-72
2023/09/19 07:50:44;;;;;;;9.75;2.63;;;;;;;14.52;100.00;100613.78;10424140;28;20033;-71
2023/09/19 07:55:47;;;;;;;9.00;1.70;;;;;;;14.56;100.00;100601.03;10416061;28;20082;-72
2023/09/19 08:00:48;;;;;;;7.95;1.48;;;;;;;14.22;100.00;100571.31;10417506;28;20037;-71
2023/09/19 08:05:49;;;;;;;12.25;1.90;;;;;;;14.78;100.00;100610.84;10416390;28;20030;-71
2023/09/19 08:10:56;;;;;;;6.47;1.50;;;;;;;14.77;100.00;100600.88;10435224;28;20508;-71
2023/09/19 08:15:56;;;;;;;7.88;1.52;;;;;;;14.77;100.00;100598.94;10404917;28;20375;-71
2023/09/19 08:20:58;;;;;;;4.60;1.20;;;;;;;14.71;100.00;100614.78;10392336;28;20058;-73
2023/09/19 08:26:03;;;;;;;7.30;1.52;;;;;;;14.65;100.00;100596.53;10387128;28;20325;-73
2023/09/19 08:31:07;;;;;;;8.45;1.65;;;;;;;14.73;100.00;100618.06;10394672;28;20038;-71
2023/09/19 08:36:09;;;;;;;11.23;2.58;;;;;;;14.72;100.00;100608.13;10372854;28;20072;-71
2023/09/19 08:41:09;;;;;;;6.90;1.60;;;;;;;15.07;100.00;100614.50;10395920;28;20041;-72
2023/09/19 08:46:10;;;;;;;9.45;1.60;;;;;;;15.41;100.00;100596.97;10406303;28;20034;-72
2023/09/19 08:51:14;;;;;;;5.60;1.25;;;;;;;15.47;100.00;100615.22;10400330;28;20045;-71
2023/09/19 08:56:17;;;;;;;10.50;1.83;;;;;;;15.68;100.00;100620.53;10404034;28;20049;-71
2023/09/19 09:01:24;;;;;;;7.57;1.65;;;;;;;15.82;100.00;100618.75;10402108;28;20061;-72
2023/09/19 09:06:25;;;;;;;13.32;2.47;;;;;;;16.10;100.00;100599.50;10428882;28;20037;-73
2023/09/19 09:11:27;;;;;;;13.57;2.63;;;;;;;16.30;100.00;100612.28;10437851;28;20046;-71
2023/09/19 09:16:29;;;;;;;10.93;3.67;;;;;;;16.36;100.00;100615.84;10424465;28;20045;-72
2023/09/19 09:21:29;;;;;;;14.50;2.15;;;;;;;16.42;100.00;100606.31;10426989;28;20064;-74
2023/09/19 09:26:38;;;;;;;10.05;2.67;;;;;;;16.64;100.00;100616.78;10445017;28;20064;-72
2023/09/19 09:31:42;;;;;;;7.60;2.08;;;;;;;16.64;100.00;100628.75;10428401;28;20041;-73
2023/09/19 09:36:43;;;;;;;8.57;2.35;;;;;;;16.63;100.00;100585.41;10449718;28;20038;-71
2023/09/19 09:41:44;;;;;;;7.85;2.20;;;;;;;17.07;100.00;100603.59;10424947;28;20045;-71
2023/09/19 09:52:07;;;;;;;10.52;2.13;;;;;;;17.44;100.00;100601.81;10369369;28;20122;-72
2023/09/19 09:57:17;;;;;;;11.05;2.17;;;;;;;17.68;100.00;100589.69;10416732;28;20061;-72
2023/09/19 10:02:25;;;;;;;6.50;1.85;;;;;;;17.91;100.00;100599.81;10396195;28;20045;-71
2023/09/19 10:07:35;;;;;;;12.27;2.35;;;;;;;17.77;100.00;100587.00;10392721;28;20493;-71
2023/09/19 10:12:38;;;;;;;9.10;1.70;;;;;;;18.06;100.00;100592.28;10392942;28;20037;-71
2023/09/19 10:17:39;;;;;;;10.60;1.58;;;;;;;17.70;100.00;100515.84;10457466;28;20045;-71
2023/09/19 10:22:42;;;;;;;9.13;2.10;;;;;;;17.85;100.00;100575.19;10447621;28;20049;-72
2023/09/19 10:27:43;;;;;;;9.63;1.77;;;;;;;17.66;100.00;100558.56;10417034;28;20111;-71
2023/09/19 10:32:43;;;;;;;10.63;1.90;;;;;;;17.79;100.00;100556.91;10437408;28;20049;-71
2023/09/19 10:37:44;;;;;;;7.72;1.85;;;;;;;18.05;100.00;100565.56;10417915;28;20041;-72
2023/09/19 10:42:44;;;;;;;8.73;2.45;;;;;;;18.41;100.00;100571.13;10413256;28;20100;-70
2023/09/19 10:47:46;;;;;;;16.50;3.85;;;;;;;18.76;100.00;100566.66;10389275;28;20037;-70
2023/09/19 10:52:50;;;;;;;11.10;3.22;;;;;;;18.78;100.00;100543.22;10397657;28;20053;-69
2023/09/19 10:57:50;;;;;;;11.32;2.15;;;;;;;18.85;100.00;100535.25;10380857;28;20045;-70
2023/09/19 11:03:09;;;;;;;5.88;1.55;;;;;;;19.15;100.00;100520.50;10416229;28;20041;-71
2023/09/19 11:08:12;;;;;;;9.15;1.75;;;;;;;19.07;100.00;100529.63;10423811;28;20042;-72
2023/09/19 11:13:30;;;;;;;7.93;1.90;;;;;;;18.56;100.00;100536.50;10431229;28;20042;-69
2023/09/19 11:18:40;;;;;;;5.93;2.00;;;;;;;18.43;100.00;100546.56;10436234;28;20544;-69
2023/09/19 11:23:40;;;;;;;7.07;1.67;;;;;;;18.78;100.00;100526.50;10444334;28;20049;-70
2023/09/19 11:28:41;;;;;;;8.27;2.33;;;;;;;19.06;100.00;100528.00;10436697;28;20037;-73
2023/09/19 11:33:46;;;;;;;6.85;1.75;;;;;;;19.25;100.00;100510.19;10442180;28;20052;-70
2023/09/19 11:38:50;;;;;;;7.57;1.50;;;;;;;19.03;100.00;100506.31;10442160;28;20049;-73
2023/09/19 11:44:00;;;;;;;9.70;1.90;;;;;;;18.91;100.00;100514.44;10433791;28;20071;-69
2023/09/19 11:49:13;;;;;;;11.45;1.83;;;;;;;19.26;100.00;100492.31;10368394;28;20045;-70
2023/09/19 11:54:21;;;;;;;9.82;2.05;;;;;;;19.38;100.00;100488.91;10356813;28;20437;-73
2023/09/19 11:59:28;;;;;;;11.00;3.20;;;;;;;18.88;100.00;100498.38;10348936;28;20038;-74
2023/09/19 12:04:48;;;;;;;7.68;1.55;;;;;;;18.84;100.00;100481.44;10459766;28;20071;-76
2023/09/19 12:09:49;;;;;;;8.20;1.63;;;;;;;18.83;100.00;100495.69;10475229;28;20060;-74
2023/09/19 12:14:52;;;;;;;9.32;1.42;;;;;;;18.82;100.00;100492.09;10477763;28;20044;-72
2023/09/19 12:19:55;;;;;;;8.73;1.90;;;;;;;18.65;100.00;100483.59;10476699;28;20468;-72
2023/09/19 12:25:06;;;;;;;7.53;1.52;;;;;;;18.70;100.00;100478.69;10480055;28;20452;-70
2023/09/19 12:30:08;;;;;;;7.95;1.77;;;;;;;18.59;100.00;100474.53;10480464;28;20044;-70
2023/09/19 12:35:10;;;;;;;13.27;2.38;;;;;;;18.63;100.00;100475.53;10474427;28;20047;-73
2023/09/19 12:40:18;;;;;;;5.38;1.23;;;;;;;18.34;100.00;100460.09;10460237;28;20040;-72
2023/09/19 12:45:18;;;;;;;11.95;1.77;;;;;;;18.18;100.00;100463.59;10446068;28;20064;-73
2023/09/19 12:50:25;;;;;;;12.18;2.38;;;;;;;18.02;100.00;100468.69;10479306;28;20037;-73
2023/09/19 12:55:27;;;;;;;6.63;2.28;;;;;;;17.77;100.00;100475.63;10468920;28;20054;-71
2023/09/19 13:00:37;;;;;;;7.75;2.20;;;;;;;18.08;100.00;100459.06;10458469;28;20041;-71
2023/09/19 13:05:53;;;;;;;10.15;1.13;;;;;;;18.57;100.00;100464.84;10465881;28;20028;-73
2023/09/19 13:11:06;;;;;;;7.07;1.30;;;;;;;18.56;100.00;100452.84;10478323;28;20048;-78
2023/09/19 13:16:14;;;;;;;6.53;1.75;;;;;;;18.66;100.00;100469.31;10486754;28;20036;-76
2023/09/19 13:21:23;;;;;;;4.75;1.55;;;;;;;18.25;100.00;100436.94;10469368;28;20045;-75
2023/09/19 13:26:28;;;;;;;6.13;1.45;;;;;;;18.02;100.00;100452.78;10446696;28;20034;-73
2023/09/19 13:31:28;;;;;;;10.40;1.20;;;;;;;18.00;100.00;100446.72;10445462;28;20506;-73
2023/09/19 13:36:28;;;;;;;11.65;2.33;;;;;;;17.89;100.00;100440.56;10441343;28;20042;-75
2023/09/19 13:41:32;;;;;;;9.02;2.60;;;;;;;17.78;100.00;100444.69;10454036;28;20125;-72
2023/09/19 13:46:34;;;;;;;13.38;1.95;;;;;;;17.75;100.00;100439.75;10452869;28;20049;-73
2023/09/19 13:51:35;;;;;;;8.82;2.80;;;;;;;17.76;100.00;100446.97;10450859;28;20071;-74
2023/09/19 13:56:37;;;;;;;5.35;1.30;;;;;;;17.69;100.00;100457.69;10453983;28;20044;-75
2023/09/19 14:01:37;;;;;;;4.25;1.35;;;;;;;17.77;100.00;100459.75;10449897;28;20037;-74
2023/09/19 14:06:43;;;;;;;5.85;1.70;;;;;;;17.74;100.00;100466.78;10439973;28;20109;-76
2023/09/19 14:11:47;;;;;;;12.25;1.92;;;;;;;17.43;100.00;100452.69;10477766;28;20040;-76
2023/09/19 14:16:47;;;;;;;6.75;1.30;;;;;;;17.51;100.00;100474.22;10479382;28;20037;-74
2023/09/19 14:21:48;;;;;;;5.97;1.25;;;;;;;17.56;100.00;100464.94;10461349;28;20037;-75
2023/09/19 14:26:49;;;;;;;3.17;1.10;;;;;;;17.83;100.00;100460.50;10473313;28;20049;-73
2023/09/19 14:31:49;;;;;;;4.70;1.00;;;;;;;18.08;100.00;100442.34;10479560;28;20448;-77
2023/09/19 14:36:50;;;;;;;6.55;1.20;;;;;;;18.17;100.00;100437.69;10462782;28;20040;-77
2023/09/19 14:41:50;;;;;;;9.02;1.17;;;;;;;18.12;100.00;100435.00;10460101;28;20090;-75
2023/09/19 14:46:51;;;;;;;7.00;1.05;;;;;;;18.17;100.00;100422.91;10463136;28;20052;-74
2023/09/19 14:51:52;;;;;;;2.72;0.88;;;;;;;18.23;100.00;100411.34;10467808;28;20033;-74
2023/09/19 14:57:03;;;;;;;5.25;0.88;;;;;;;18.13;100.00;100422.75;10472677;28;20040;-71
2023/09/19 15:02:04;;;;;;;7.25;1.20;;;;;;;18.00;100.00;100404.13;10454629;28;20448;-73
2023/09/19 15:07:05;;;;;;;7.35;0.90;;;;;;;18.09;100.00;100418.94;10480306;28;20036;-77
2023/09/19 15:12:05;;;;;;;3.90;0.93;;;;;;;18.11;100.00;100423.06;10472926;28;20127;-75
2023/09/19 15:17:06;;;;;;;8.00;1.45;;;;;;;17.94;100.00;100409.81;10481823;28;20531;-72
2023/09/19 15:22:06;;;;;;;4.35;0.70;;;;;;;17.93;100.00;100419.31;10474340;28;20041;-73
2023/09/19 15:27:07;;;;;;;3.63;0.85;;;;;;;17.79;100.00;100395.41;10479345;28;20041;-76
2023/09/19 15:32:10;;;;;;;4.78;1.23;;;;;;;18.02;100.00;100427.72;10474219;28;20042;-73
2023/09/19 15:37:10;;;;;;;8.38;1.92;;;;;;;17.91;100.00;100455.00;10479358;28;20037;-77
2023/09/19 15:42:11;;;;;;;4.00;0.88;;;;;;;17.70;100.00;100470.50;10458574;28;20037;-75
2023/09/19 15:47:11;;;;;;;4.65;0.93;;;;;;;17.23;100.00;100486.50;10458829;28;20037;-86
2023/09/19 15:52:12;;;;;;;5.50;1.25;;;;;;;17.09;100.00;100456.72;10476872;28;20044;-79
2023/09/19 15:57:13;;;;;;;6.07;0.98;;;;;;;17.14;100.00;100453.84;10469098;28;20044;-73
2023/09/19 16:02:14;;;;;;;3.28;2.05;;;;;;;17.13;100.00;100435.50;10451217;28;20234;-71
2023/09/19 16:07:15;;;;;;;7.72;1.05;;;;;;;17.21;100.00;100458.16;10480104;28;20056;-75
2023/09/19 16:12:15;;;;;;;3.40;0.60;;;;;;;17.25;100.00;100451.66;10477949;28;20115;-72
2023/09/19 16:17:16;;;;;;;5.03;0.98;;;;;;;17.35;100.00;100459.00;10472851;28;20499;-77
2023/09/19 16:22:16;;;;;;;7.00;0.98;;;;;;;17.33;100.00;100444.56;10455315;28;20504;-78
2023/09/19 16:27:20;;;;;;;5.03;1.65;;;;;;;17.39;100.00;100468.38;10447827;28;20029;-77
2023/09/19 16:32:21;;;;;;;2.63;0.80;;;;;;;17.47;100.00;100464.84;10458239;28;20040;-75
2023/09/19 16:37:23;;;;;;;4.25;0.75;;;;;;;17.45;100.00;100453.22;10483419;28;20101;-73
2023/09/19 16:42:24;;;;;;;5.97;0.88;;;;;;;17.43;100.00;100466.63;10481422;28;20047;-76
2023/09/19 16:47:24;;;;;;;5.28;0.93;;;;;;;17.38;100.00;100474.22;10483892;28;20041;-76
2023/09/19 16:52:24;;;;;;;4.13;0.98;;;;;;;17.27;100.00;100487.53;10482609;28;20041;-77
2023/09/19 16:57:25;;;;;;;4.53;0.70;;;;;;;17.14;100.00;100484.44;10479201;28;20037;-73
2023/09/19 17:02:28;;;;;;;3.58;0.85;;;;;;;16.99;100.00;100490.31;10481019;28;20040;-74
2023/09/19 17:07:29;;;;;;;3.92;0.82;;;;;;;16.85;100.00;100483.91;10465567;28;20044;-73
2023/09/19 17:12:29;;;;;;;5.78;1.60;;;;;;;16.74;100.00;100484.06;10485705;28;20040;-75
2023/09/19 17:17:30;;;;;;;4.65;1.23;;;;;;;16.69;100.00;100481.34;10464696;28;20407;-75
2023/09/19 17:22:30;;;;;;;3.88;0.95;;;;;;;16.66;100.00;100492.25;10485268;28;20504;-75
2023/09/19 17:27:31;;;;;;;2.70;1.20;;;;;;;16.63;100.00;100481.75;10483704;28;20041;-75
2023/09/19 17:32:31;;;;;;;5.65;1.80;;;;;;;16.68;100.00;100485.28;10483066;28;20048;-70
2023/09/19 17:37:34;;;;;;;4.45;1.20;;;;;;;16.70;100.00;100477.44;10487143;28;21012;-74
2023/09/19 17:42:36;;;;;;;5.32;1.75;;;;;;;16.70;100.00;100479.38;10478438;28;20037;-74
2023/09/19 17:47:41;;;;;;;2.63;1.02;;;;;;;16.68;100.00;100489.97;10476081;28;20041;-73
2023/09/19 17:52:42;;;;;;;4.00;1.45;;;;;;;16.70;100.00;100498.84;10456401;28;20045;-75
2023/09/19 17:57:45;;;;;;;4.30;1.05;;;;;;;16.64;100.00;100492.56;10478915;28;20032;-74
2023/09/19 18:02:45;;;;;;;3.42;1.40;;;;;;;16.69;100.00;100492.47;10449552;28;20040;-72
2023/09/19 18:07:46;;;;;;;7.80;1.35;;;;;;;16.64;100.00;100495.34;10456545;28;20040;-73
2023/09/19 18:12:47;;;;;;;6.32;2.05;;;;;;;16.60;100.00;100508.19;10474355;28;20067;-75
2023/09/19 18:17:48;;;;;;;9.32;2.20;;;;;;;16.49;100.00;100506.69;10481924;28;20098;-73
2023/09/19 18:22:48;;;;;;;4.03;1.65;;;;;;;16.40;100.00;100514.91;10478073;28;20538;-72
2023/09/19 18:27:49;;;;;;;5.22;1.70;;;;;;;16.18;100.00;100504.41;10475231;28;20042;-74
2023/09/19 18:32:52;;;;;;;4.72;1.40;;;;;;;16.10;100.00;100524.53;10453396;28;20057;-74
2023/09/19 18:37:55;;;;;;;5.55;1.40;;;;;;;15.93;100.00;100523.09;10462674;28;20074;-74
2023/09/19 18:42:56;;;;;;;5.85;1.60;;;;;;;15.83;100.00;100523.22;10465738;28;20061;-74
2023/09/19 18:47:56;;;;;;;9.02;2.10;;;;;;;15.72;100.00;100530.03;10461886;28;20049;-74
2023/09/19 18:52:57;;;;;;;6.30;1.70;;;;;;;15.63;100.00;100537.38;10472630;28;20040;-73
2023/09/19 18:57:58;;;;;;;7.50;1.70;;;;;;;15.46;100.00;100532.28;10430955;28;20041;-73
2023/09/19 19:02:59;;;;;;;7.22;2.17;;;;;;;15.33;100.00;100528.25;10454934;28;20045;-74
2023/09/19 19:08:01;;;;;;;7.45;2.05;;;;;;;15.24;100.00;100530.03;10460652;28;20065;-75
2023/09/19 19:13:01;;;;;;;7.53;2.20;;;;;;;15.20;100.00;100528.97;10471434;28;20047;-76
2023/09/19 19:18:02;;;;;;;10.05;3.45;;;;;;;15.17;100.00;100529.53;10480323;28;20372;-74
2023/09/19 19:23:03;;;;;;;6.43;2.08;;;;;;;15.14;100.00;100540.09;10479177;28;20074;-70
2023/09/19 19:28:04;;;;;;;6.60;2.38;;;;;;;15.10;100.00;100514.09;10479619;28;21188;-76
2023/09/19 19:33:06;;;;;;;6.75;2.40;;;;;;;15.08;100.00;100541.28;10479194;28;20068;-74
2023/09/19 19:38:10;;;;;;;8.18;2.65;;;;;;;15.05;100.00;100528.00;10459280;28;20531;-73
2023/09/19 19:43:11;;;;;;;4.95;2.40;;;;;;;14.95;100.00;100522.56;10473993;28;20071;-75
2023/09/19 19:48:11;;;;;;;5.55;2.67;;;;;;;15.04;100.00;100534.66;10474303;28;20068;-73
2023/09/19 19:53:11;;;;;;;8.00;2.83;;;;;;;15.07;100.00;100524.97;10480340;28;20032;-72
2023/09/19 19:58:14;;;;;;;10.18;3.75;;;;;;;15.01;100.00;100524.19;10448166;28;20048;-74
2023/09/19 20:03:15;;;;;;;7.50;3.35;;;;;;;14.92;100.00;100506.50;10449635;28;20037;-73
2023/09/19 20:08:16;;;;;;;10.40;4.57;;;;;;;15.12;100.00;100533.22;10452707;28;20047;-73
2023/09/19 20:13:17;;;;;;;8.15;3.28;;;;;;;15.16;100.00;100539.81;10473919;28;20037;-72
2023/09/19 20:18:19;;;;;;;7.93;2.97;;;;;;;15.16;100.00;100539.00;10462625;28;20144;-77
2023/09/19 20:23:20;;;;;;;7.43;3.92;;;;;;;15.16;100.00;100545.38;10468927;28;20052;-74
2023/09/19 20:28:20;;;;;;;6.22;3.28;;;;;;;15.20;100.00;100534.53;10452551;28;20108;-74
2023/09/19 20:33:23;;;;;;;7.68;3.70;;;;;;;15.22;100.00;100532.28;10464304;28;20040;-71
2023/09/19 20:38:23;;;;;;;3.88;2.45;;;;;;;15.24;100.00;100541.13;10457475;28;20059;-72
2023/09/19 20:43:24;;;;;;;5.40;3.53;;;;;;;15.19;100.00;100555.03;10453361;28;20052;-70
2023/09/19 20:48:25;;;;;;;5.68;3.35;;;;;;;15.18;100.00;100536.75;10456830;28;20042;-75
2023/09/19 20:53:25;;;;;;;6.13;3.33;;;;;;;15.22;100.00;100543.38;10434940;28;20041;-75
2023/09/19 20:58:27;;;;;;;8.52;3.85;;;;;;;15.24;100.00;100527.28;10455277;28;20040;-74
2023/09/19 21:03:28;;;;;;;8.73;2.72;;;;;;;15.26;100.00;100536.13;10457921;28;20090;-75
2023/09/19 21:08:28;;;;;;;10.48;3.85;;;;;;;15.28;100.00;100531.09;10462590;28;20083;-69
2023/09/19 21:13:29;;;;;;;9.35;4.00;;;;;;;15.28;100.00;100526.38;10459498;28;20049;-77
2023/09/19 21:18:29;;;;;;;8.68;3.53;;;;;;;15.28;100.00;100504.19;10472499;28;20045;-74
2023/09/19 21:23:31;;;;;;;8.52;4.43;;;;;;;15.39;100.00;100515.16;10472450;28;20049;-71
2023/09/19 21:28:31;;;;;;;6.68;3.33;;;;;;;15.45;100.00;100520.34;10469084;28;20057;-73
2023/09/19 21:33:38;;;;;;;8.07;3.55;;;;;;;15.52;100.00;100515.28;10467066;28;20028;-73
2023/09/19 21:38:38;;;;;;;;;;;;;;;15.57;100.00;100516.34;10467304;28;20429;-73
2023/09/19 21:43:39;;;;;;;14.55;4.90;;;;;;;15.60;100.00;100510.19;10463100;28;19957;-73
2023/09/19 21:48:40;;;;;;;7.82;3.85;;;;;;;15.60;100.00;100510.19;10484907;28;20461;-75
2023/09/19 21:53:40;;;;;;;13.40;5.18;;;;;;;15.62;100.00;100496.84;10475199;28;20545;-75
2023/09/19 21:58:41;;;;;;;5.47;3.50;;;;;;;15.65;100.00;100512.91;10477270;28;20043;-74
2023/09/19 22:03:42;;;;;;;6.70;3.67;;;;;;;15.71;100.00;100517.28;10471768;28;20048;-74
2023/09/19 22:08:42;;;;;;;9.27;3.00;;;;;;;15.72;100.00;100527.28;10456630;28;20245;-73
2023/09/19 22:13:43;;;;;;;9.88;3.72;;;;;;;15.35;100.00;100476.09;10470810;28;20051;-75
2023/09/19 22:18:47;;;;;;;6.88;3.30;;;;;;;15.65;100.00;100499.03;10465089;28;20033;-77
2023/09/19 22:23:49;;;;;;;9.35;3.97;;;;;;;15.79;100.00;100513.84;10468173;28;20048;-78
2023/09/19 22:28:52;;;;;;;8.43;3.40;;;;;;;15.83;100.00;100517.69;10462060;28;20037;-76
2023/09/19 22:33:54;;;;;;;5.35;2.70;;;;;;;15.84;100.00;100522.13;10474460;28;20039;-76
2023/09/19 22:38:59;;;;;;;7.38;2.95;;;;;;;15.90;100.00;100520.09;10471355;28;20049;-75
2023/09/19 22:44:00;;;;;;;8.70;3.65;;;;;;;15.93;100.00;100520.31;10468516;28;20037;-74
2023/09/19 22:49:00;;;;;;;9.25;2.58;;;;;;;15.96;100.00;100516.13;10456563;28;20033;-74
2023/09/19 22:54:02;;;;;;;4.85;2.65;;;;;;;16.03;100.00;100513.78;10463799;28;20091;-76